sensor_id;sensor_type;location;lat;lon;timestamp;P1;durP1;ratioP1;P2;durP2;ratioP2
30864;SDS011;17574;49.418;11.038;2022-10-23T12:16:19;7.60;;;1.40;;
30864;SDS011;17574;49.418;11.038;2022-10-23T12:18:52;5.40;;;1.10;;
30864;SDS011;17574;49.418;11.038;2022-10-23T12:21:20;6.73;;;0.83;;
30864;SDS011;17574;49.418;11.038;2022-10-23T12:30:02;5.10;;;0.73;;
30864;SDS011;17574;49.418;11.038;2022-10-23T12:38:29;6.17;;;0.80;;
30864;SDS011;17574;49.418;11.038;2022-10-23T12:41:05;6.93;;;0.80;;
30864;SDS011;17574;49.418;11.038;2022-10-23T12:43:38;6.20;;;1.13;;
30864;SDS011;17574;49.418;11.038;2022-10-23T12:48:47;5.17;;;0.80;;
30864;SDS011;17574;49.418;11.038;2022-10-23T12:51:25;6.63;;;0.97;;
30864;SDS011;17574;49.418;11.038;2022-10-23T12:53:53;7.83;;;1.10;;
30864;SDS011;17574;49.418;11.038;2022-10-23T12:56:20;4.93;;;0.70;;
30864;SDS011;17574;49.418;11.038;2022-10-23T12:58:54;5.40;;;0.70;;
30864;SDS011;17574;49.418;11.038;2022-10-23T13:01:29;4.77;;;0.73;;
30864;SDS011;17574;49.418;11.038;2022-10-23T13:04:01;6.03;;;0.90;;
30864;SDS011;17574;49.418;11.038;2022-10-23T13:06:30;5.63;;;1.00;;
30864;SDS011;17574;49.418;11.038;2022-10-23T13:08:57;5.70;;;0.90;;
30864;SDS011;17574;49.418;11.038;2022-10-23T13:11:24;5.67;;;1.10;;
30864;SDS011;17574;49.418;11.038;2022-10-23T13:13:51;4.90;;;0.80;;
30864;SDS011;17574;49.418;11.038;2022-10-23T13:16:20;5.90;;;1.17;;
30864;SDS011;17574;49.418;11.038;2022-10-23T13:18:48;5.97;;;0.80;;
30864;SDS011;17574;49.418;11.038;2022-10-23T13:21:20;6.13;;;1.10;;
30864;SDS011;17574;49.418;11.038;2022-10-23T13:23:48;5.40;;;1.07;;
30864;SDS011;17574;49.418;11.038;2022-10-23T13:26:59;5.70;;;1.00;;
30864;SDS011;17574;49.418;11.038;2022-10-23T13:29:17;6.10;;;0.90;;
30864;SDS011;17574;49.418;11.038;2022-10-23T13:31:46;5.17;;;0.83;;
30864;SDS011;17574;49.418;11.038;2022-10-23T13:34:27;5.37;;;0.90;;
30864;SDS011;17574;49.418;11.038;2022-10-23T13:37:40;4.97;;;1.00;;
30864;SDS011;17574;49.418;11.038;2022-10-23T13:39:45;4.73;;;0.93;;
30864;SDS011;17574;49.418;11.038;2022-10-23T13:42:12;5.50;;;0.97;;
30864;SDS011;17574;49.418;11.038;2022-10-23T13:44:40;6.30;;;1.13;;
30864;SDS011;17574;49.418;11.038;2022-10-23T13:47:10;7.30;;;0.80;;
30864;SDS011;17574;49.418;11.038;2022-10-23T13:49:38;4.83;;;0.90;;
30864;SDS011;17574;49.418;11.038;2022-10-23T13:52:07;4.83;;;1.00;;
30864;SDS011;17574;49.418;11.038;2022-10-23T13:54:37;5.20;;;1.13;;
30864;SDS011;17574;49.418;11.038;2022-10-23T13:57:05;4.87;;;1.03;;
30864;SDS011;17574;49.418;11.038;2022-10-23T13:59:36;8.17;;;0.97;;
30864;SDS011;17574;49.418;11.038;2022-10-23T14:02:05;5.27;;;1.00;;
30864;SDS011;17574;49.418;11.038;2022-10-23T14:04:46;4.50;;;0.90;;
30864;SDS011;17574;49.418;11.038;2022-10-23T14:07:16;6.33;;;1.63;;
30864;SDS011;17574;49.418;11.038;2022-10-23T14:09:43;9.90;;;1.50;;
30864;SDS011;17574;49.418;11.038;2022-10-23T14:12:10;5.80;;;1.33;;
30864;SDS011;17574;49.418;11.038;2022-10-23T14:14:38;6.70;;;1.43;;
30864;SDS011;17574;49.418;11.038;2022-10-23T14:17:05;5.17;;;1.40;;
30864;SDS011;17574;49.418;11.038;2022-10-23T14:19:32;19.73;;;1.50;;
30864;SDS011;17574;49.418;11.038;2022-10-23T14:21:59;8.53;;;1.20;;
30864;SDS011;17574;49.418;11.038;2022-10-23T14:24:26;5.80;;;1.60;;
30864;SDS011;17574;49.418;11.038;2022-10-23T14:26:52;6.33;;;1.50;;
30864;SDS011;17574;49.418;11.038;2022-10-23T14:29:19;7.47;;;2.00;;
30864;SDS011;17574;49.418;11.038;2022-10-23T14:31:49;6.90;;;1.60;;
30864;SDS011;17574;49.418;11.038;2022-10-23T14:34:16;7.43;;;2.00;;
30864;SDS011;17574;49.418;11.038;2022-10-23T14:36:43;7.93;;;1.70;;
30864;SDS011;17574;49.418;11.038;2022-10-23T14:39:21;5.70;;;1.47;;
30864;SDS011;17574;49.418;11.038;2022-10-23T14:41:48;23.70;;;11.23;;
30864;SDS011;17574;49.418;11.038;2022-10-23T14:44:15;36.97;;;19.87;;
30864;SDS011;17574;49.418;11.038;2022-10-23T14:46:41;144.10;;;79.27;;
30864;SDS011;17574;49.418;11.038;2022-10-23T14:49:08;65.83;;;37.47;;
30864;SDS011;17574;49.418;11.038;2022-10-23T14:51:35;61.47;;;29.73;;
30864;SDS011;17574;49.418;11.038;2022-10-23T14:54:02;43.20;;;23.30;;
30864;SDS011;17574;49.418;11.038;2022-10-23T14:56:31;113.43;;;64.27;;
30864;SDS011;17574;49.418;11.038;2022-10-23T14:59:00;89.10;;;56.47;;
30864;SDS011;17574;49.418;11.038;2022-10-23T15:01:33;125.87;;;69.30;;
30864;SDS011;17574;49.418;11.038;2022-10-23T15:04:07;28.23;;;17.60;;
30864;SDS011;17574;49.418;11.038;2022-10-23T15:06:35;71.37;;;37.23;;
30864;SDS011;17574;49.418;11.038;2022-10-23T15:09:03;30.30;;;15.27;;
30864;SDS011;17574;49.418;11.038;2022-10-23T15:11:30;18.17;;;8.27;;
30864;SDS011;17574;49.418;11.038;2022-10-23T15:13:57;5.97;;;2.07;;
30864;SDS011;17574;49.418;11.038;2022-10-23T15:16:24;10.47;;;3.27;;
30864;SDS011;17574;49.418;11.038;2022-10-23T15:18:51;8.40;;;3.70;;
30864;SDS011;17574;49.418;11.038;2022-10-23T15:21:18;11.37;;;3.20;;
30864;SDS011;17574;49.418;11.038;2022-10-23T15:23:45;8.90;;;2.83;;
30864;SDS011;17574;49.418;11.038;2022-10-23T15:26:16;6.50;;;2.33;;
30864;SDS011;17574;49.418;11.038;2022-10-23T15:28:55;9.50;;;3.43;;
30864;SDS011;17574;49.418;11.038;2022-10-23T15:34:03;10.70;;;2.70;;
30864;SDS011;17574;49.418;11.038;2022-10-23T15:36:30;9.00;;;2.67;;
30864;SDS011;17574;49.418;11.038;2022-10-23T15:38:58;6.73;;;2.40;;
30864;SDS011;17574;49.418;11.038;2022-10-23T15:41:31;10.50;;;2.13;;
30864;SDS011;17574;49.418;11.038;2022-10-23T15:44:00;10.03;;;2.30;;
30864;SDS011;17574;49.418;11.038;2022-10-23T15:46:28;5.73;;;1.60;;
30864;SDS011;17574;49.418;11.038;2022-10-23T15:48:55;6.23;;;1.60;;
30864;SDS011;17574;49.418;11.038;2022-10-23T15:51:21;6.67;;;2.27;;
30864;SDS011;17574;49.418;11.038;2022-10-23T15:53:48;6.07;;;1.93;;
30864;SDS011;17574;49.418;11.038;2022-10-23T15:56:15;8.10;;;1.53;;
30864;SDS011;17574;49.418;11.038;2022-10-23T15:58:41;10.30;;;2.33;;
30864;SDS011;17574;49.418;11.038;2022-10-23T16:01:08;8.60;;;1.97;;
30864;SDS011;17574;49.418;11.038;2022-10-23T16:03:36;8.70;;;2.00;;
30864;SDS011;17574;49.418;11.038;2022-10-23T16:06:04;5.70;;;2.10;;
30864;SDS011;17574;49.418;11.038;2022-10-23T16:08:32;6.50;;;2.60;;
30864;SDS011;17574;49.418;11.038;2022-10-23T16:11:00;5.13;;;1.77;;
30864;SDS011;17574;49.418;11.038;2022-10-23T16:13:27;7.27;;;2.30;;
30864;SDS011;17574;49.418;11.038;2022-10-23T16:15:54;5.13;;;1.53;;
30864;SDS011;17574;49.418;11.038;2022-10-23T16:18:21;6.67;;;2.00;;
30864;SDS011;17574;49.418;11.038;2022-10-23T16:20:48;13.10;;;2.33;;
30864;SDS011;17574;49.418;11.038;2022-10-23T16:23:20;7.27;;;2.00;;
30864;SDS011;17574;49.418;11.038;2022-10-23T16:25:47;6.30;;;2.03;;
30864;SDS011;17574;49.418;11.038;2022-10-23T16:28:14;7.20;;;1.83;;
30864;SDS011;17574;49.418;11.038;2022-10-23T16:30:41;8.93;;;2.27;;
30864;SDS011;17574;49.418;11.038;2022-10-23T16:33:08;9.03;;;2.10;;
30864;SDS011;17574;49.418;11.038;2022-10-23T16:35:35;6.83;;;2.20;;
30864;SDS011;17574;49.418;11.038;2022-10-23T16:38:02;6.00;;;2.00;;
30864;SDS011;17574;49.418;11.038;2022-10-23T16:40:29;7.00;;;2.37;;
30864;SDS011;17574;49.418;11.038;2022-10-23T16:42:57;8.50;;;3.53;;
30864;SDS011;17574;49.418;11.038;2022-10-23T16:45:23;7.60;;;3.00;;
30864;SDS011;17574;49.418;11.038;2022-10-23T16:47:50;6.90;;;2.70;;
30864;SDS011;17574;49.418;11.038;2022-10-23T16:50:17;6.90;;;2.70;;
30864;SDS011;17574;49.418;11.038;2022-10-23T16:52:43;6.53;;;2.50;;
30864;SDS011;17574;49.418;11.038;2022-10-23T16:55:11;7.17;;;2.80;;
30864;SDS011;17574;49.418;11.038;2022-10-23T16:57:38;7.30;;;2.63;;
30864;SDS011;17574;49.418;11.038;2022-10-23T17:00:04;7.77;;;3.00;;
30864;SDS011;17574;49.418;11.038;2022-10-23T17:02:32;12.03;;;2.53;;
30864;SDS011;17574;49.418;11.038;2022-10-23T17:04:58;7.63;;;3.23;;
30864;SDS011;17574;49.418;11.038;2022-10-23T17:07:25;7.33;;;3.20;;
30864;SDS011;17574;49.418;11.038;2022-10-23T17:09:52;10.97;;;3.57;;
30864;SDS011;17574;49.418;11.038;2022-10-23T17:12:18;6.50;;;2.87;;
30864;SDS011;17574;49.418;11.038;2022-10-23T17:14:45;7.67;;;2.83;;
30864;SDS011;17574;49.418;11.038;2022-10-23T17:17:12;9.63;;;3.20;;
30864;SDS011;17574;49.418;11.038;2022-10-23T17:19:38;9.00;;;3.80;;
30864;SDS011;17574;49.418;11.038;2022-10-23T17:22:11;13.43;;;3.20;;
30864;SDS011;17574;49.418;11.038;2022-10-23T17:24:39;9.20;;;3.90;;
30864;SDS011;17574;49.418;11.038;2022-10-23T17:27:07;7.40;;;3.00;;
30864;SDS011;17574;49.418;11.038;2022-10-23T17:29:34;9.97;;;3.50;;
30864;SDS011;17574;49.418;11.038;2022-10-23T17:32:00;11.83;;;4.03;;
30864;SDS011;17574;49.418;11.038;2022-10-23T17:34:27;9.37;;;3.40;;
30864;SDS011;17574;49.418;11.038;2022-10-23T17:36:54;11.40;;;3.70;;
30864;SDS011;17574;49.418;11.038;2022-10-23T17:39:25;8.67;;;3.63;;
30864;SDS011;17574;49.418;11.038;2022-10-23T17:41:53;9.27;;;3.23;;
30864;SDS011;17574;49.418;11.038;2022-10-23T17:44:21;12.03;;;4.10;;
30864;SDS011;17574;49.418;11.038;2022-10-23T17:46:48;9.87;;;3.97;;
30864;SDS011;17574;49.418;11.038;2022-10-23T17:49:18;9.20;;;3.60;;
30864;SDS011;17574;49.418;11.038;2022-10-23T17:51:45;10.57;;;3.40;;
30864;SDS011;17574;49.418;11.038;2022-10-23T17:54:17;11.70;;;3.67;;
30864;SDS011;17574;49.418;11.038;2022-10-23T17:56:43;8.57;;;3.90;;
30864;SDS011;17574;49.418;11.038;2022-10-23T17:59:11;11.07;;;4.50;;
30864;SDS011;17574;49.418;11.038;2022-10-23T18:01:40;8.83;;;3.90;;
30864;SDS011;17574;49.418;11.038;2022-10-23T18:04:12;9.00;;;4.20;;
30864;SDS011;17574;49.418;11.038;2022-10-23T18:06:44;7.20;;;3.40;;
30864;SDS011;17574;49.418;11.038;2022-10-23T18:09:12;23.27;;;4.17;;
30864;SDS011;17574;49.418;11.038;2022-10-23T18:11:40;11.80;;;4.03;;
30864;SDS011;17574;49.418;11.038;2022-10-23T18:14:13;9.93;;;4.10;;
30864;SDS011;17574;49.418;11.038;2022-10-23T18:16:40;14.23;;;4.83;;
30864;SDS011;17574;49.418;11.038;2022-10-23T18:19:07;8.70;;;3.63;;
30864;SDS011;17574;49.418;11.038;2022-10-23T18:21:35;8.50;;;3.10;;
30864;SDS011;17574;49.418;11.038;2022-10-23T18:24:03;8.93;;;3.60;;
30864;SDS011;17574;49.418;11.038;2022-10-23T18:26:30;8.23;;;3.23;;
30864;SDS011;17574;49.418;11.038;2022-10-23T18:29:00;9.13;;;3.60;;
30864;SDS011;17574;49.418;11.038;2022-10-23T18:31:30;13.93;;;3.90;;
30864;SDS011;17574;49.418;11.038;2022-10-23T18:33:57;9.97;;;3.60;;
30864;SDS011;17574;49.418;11.038;2022-10-23T18:36:27;10.00;;;3.90;;
30864;SDS011;17574;49.418;11.038;2022-10-23T18:38:57;10.17;;;4.03;;
30864;SDS011;17574;49.418;11.038;2022-10-23T18:41:24;10.33;;;4.27;;
30864;SDS011;17574;49.418;11.038;2022-10-23T18:43:52;8.73;;;3.30;;
30864;SDS011;17574;49.418;11.038;2022-10-23T18:46:19;11.00;;;3.83;;
30864;SDS011;17574;49.418;11.038;2022-10-23T18:48:46;9.27;;;3.17;;
30864;SDS011;17574;49.418;11.038;2022-10-23T18:51:17;9.60;;;3.50;;
30864;SDS011;17574;49.418;11.038;2022-10-23T18:53:45;12.10;;;4.10;;
30864;SDS011;17574;49.418;11.038;2022-10-23T18:56:13;15.03;;;4.60;;
30864;SDS011;17574;49.418;11.038;2022-10-23T18:58:41;14.90;;;4.03;;
30864;SDS011;17574;49.418;11.038;2022-10-23T19:01:07;10.60;;;4.90;;
30864;SDS011;17574;49.418;11.038;2022-10-23T19:03:34;8.47;;;4.00;;
30864;SDS011;17574;49.418;11.038;2022-10-23T19:06:01;13.50;;;5.37;;
30864;SDS011;17574;49.418;11.038;2022-10-23T19:08:30;13.03;;;3.67;;
30864;SDS011;17574;49.418;11.038;2022-10-23T19:10:56;9.10;;;4.77;;
30864;SDS011;17574;49.418;11.038;2022-10-23T19:13:25;8.77;;;3.63;;
30864;SDS011;17574;49.418;11.038;2022-10-23T19:15:52;9.90;;;4.50;;
30864;SDS011;17574;49.418;11.038;2022-10-23T19:18:19;14.27;;;4.73;;
30864;SDS011;17574;49.418;11.038;2022-10-23T19:20:45;9.73;;;4.67;;
30864;SDS011;17574;49.418;11.038;2022-10-23T19:23:12;14.63;;;6.90;;
30864;SDS011;17574;49.418;11.038;2022-10-23T19:25:41;11.80;;;5.00;;
30864;SDS011;17574;49.418;11.038;2022-10-23T19:28:10;11.70;;;5.47;;
30864;SDS011;17574;49.418;11.038;2022-10-23T19:30:36;13.13;;;6.07;;
30864;SDS011;17574;49.418;11.038;2022-10-23T19:33:04;16.40;;;5.43;;
30864;SDS011;17574;49.418;11.038;2022-10-23T19:35:31;11.87;;;4.47;;
30864;SDS011;17574;49.418;11.038;2022-10-23T19:37:57;15.60;;;3.97;;
30864;SDS011;17574;49.418;11.038;2022-10-23T19:40:24;12.30;;;4.43;;
30864;SDS011;17574;49.418;11.038;2022-10-23T19:42:51;14.63;;;4.40;;
30864;SDS011;17574;49.418;11.038;2022-10-23T19:45:19;9.07;;;4.30;;
30864;SDS011;17574;49.418;11.038;2022-10-23T19:47:46;8.37;;;3.77;;
30864;SDS011;17574;49.418;11.038;2022-10-23T19:50:13;10.10;;;3.80;;
30864;SDS011;17574;49.418;11.038;2022-10-23T19:52:39;10.17;;;4.13;;
30864;SDS011;17574;49.418;11.038;2022-10-23T19:55:06;13.90;;;4.53;;
30864;SDS011;17574;49.418;11.038;2022-10-23T19:57:34;12.00;;;4.43;;
30864;SDS011;17574;49.418;11.038;2022-10-23T20:00:03;8.90;;;3.53;;
30864;SDS011;17574;49.418;11.038;2022-10-23T20:02:32;10.13;;;3.93;;
